sensor_id;sensor_type;location;lat;lon;timestamp;temperature;humidity
22923;DHT22;11627;51.322;22.816;2023-04-03T00:01:54;1.10;99.90
22923;DHT22;11627;51.322;22.816;2023-04-03T00:04:20;1.20;99.90
22923;DHT22;11627;51.322;22.816;2023-04-03T00:06:46;1.20;99.90
22923;DHT22;11627;51.322;22.816;2023-04-03T00:09:12;1.20;99.90
22923;DHT22;11627;51.322;22.816;2023-04-03T00:11:37;1.10;99.90
22923;DHT22;11627;51.322;22.816;2023-04-03T00:14:03;1.10;99.90
22923;DHT22;11627;51.322;22.816;2023-04-03T00:16:29;1.10;99.90
22923;DHT22;11627;51.322;22.816;2023-04-03T00:18:55;1.00;99.90
22923;DHT22;11627;51.322;22.816;2023-04-03T00:21:20;1.00;99.90
22923;DHT22;11627;51.322;22.816;2023-04-03T00:23:46;1.00;99.90
22923;DHT22;11627;51.322;22.816;2023-04-03T00:26:12;1.00;99.90
22923;DHT22;11627;51.322;22.816;2023-04-03T00:28:38;1.00;99.90
22923;DHT22;11627;51.322;22.816;2023-04-03T00:31:03;1.00;99.90
22923;DHT22;11627;51.322;22.816;2023-04-03T00:33:29;1.00;99.90
22923;DHT22;11627;51.322;22.816;2023-04-03T00:35:55;1.00;99.90
22923;DHT22;11627;51.322;22.816;2023-04-03T00:38:21;1.00;99.90
22923;DHT22;11627;51.322;22.816;2023-04-03T00:40:48;1.10;99.90
22923;DHT22;11627;51.322;22.816;2023-04-03T00:43:20;1.00;99.90
22923;DHT22;11627;51.322;22.816;2023-04-03T00:45:51;0.90;99.90
22923;DHT22;11627;51.322;22.816;2023-04-03T00:48:37;0.80;99.90
22923;DHT22;11627;51.322;22.816;2023-04-03T00:51:07;0.80;99.90
22923;DHT22;11627;51.322;22.816;2023-04-03T00:53:39;0.70;99.90
22923;DHT22;11627;51.322;22.816;2023-04-03T00:56:09;0.80;99.90
22923;DHT22;11627;51.322;22.816;2023-04-03T00:59:00;0.80;99.90
22923;DHT22;11627;51.322;22.816;2023-04-03T01:01:28;0.90;99.90
22923;DHT22;11627;51.322;22.816;2023-04-03T01:03:55;0.80;99.90
22923;DHT22;11627;51.322;22.816;2023-04-03T01:06:26;0.80;99.90
22923;DHT22;11627;51.322;22.816;2023-04-03T01:08:52;0.70;99.90
22923;DHT22;11627;51.322;22.816;2023-04-03T01:11:18;0.70;99.90
22923;DHT22;11627;51.322;22.816;2023-04-03T01:13:46;0.70;99.90
22923;DHT22;11627;51.322;22.816;2023-04-03T01:16:11;0.70;99.90
22923;DHT22;11627;51.322;22.816;2023-04-03T01:18:38;0.70;99.90
22923;DHT22;11627;51.322;22.816;2023-04-03T01:23:47;0.70;99.90
22923;DHT22;11627;51.322;22.816;2023-04-03T01:26:15;0.70;99.90
22923;DHT22;11627;51.322;22.816;2023-04-03T01:28:41;0.70;99.90
22923;DHT22;11627;51.322;22.816;2023-04-03T01:31:41;0.60;99.90
22923;DHT22;11627;51.322;22.816;2023-04-03T01:34:07;0.60;99.90
22923;DHT22;11627;51.322;22.816;2023-04-03T01:36:33;0.60;99.90
22923;DHT22;11627;51.322;22.816;2023-04-03T01:38:59;0.60;99.90
22923;DHT22;11627;51.322;22.816;2023-04-03T01:41:26;0.60;99.90
22923;DHT22;11627;51.322;22.816;2023-04-03T01:43:52;0.70;99.90
22923;DHT22;11627;51.322;22.816;2023-04-03T01:46:18;0.70;99.90
22923;DHT22;11627;51.322;22.816;2023-04-03T01:48:45;0.80;99.90
22923;DHT22;11627;51.322;22.816;2023-04-03T01:51:11;0.80;99.90
22923;DHT22;11627;51.322;22.816;2023-04-03T01:53:37;0.80;99.90
22923;DHT22;11627;51.322;22.816;2023-04-03T01:56:03;0.80;99.90
22923;DHT22;11627;51.322;22.816;2023-04-03T01:58:28;0.80;99.90
22923;DHT22;11627;51.322;22.816;2023-04-03T02:00:54;0.80;99.90
22923;DHT22;11627;51.322;22.816;2023-04-03T02:03:21;0.80;99.90
22923;DHT22;11627;51.322;22.816;2023-04-03T02:05:47;0.80;99.90
22923;DHT22;11627;51.322;22.816;2023-04-03T02:08:13;0.80;99.90
22923;DHT22;11627;51.322;22.816;2023-04-03T02:10:39;0.70;99.90
22923;DHT22;11627;51.322;22.816;2023-04-03T02:13:05;0.80;99.90
22923;DHT22;11627;51.322;22.816;2023-04-03T02:15:31;0.70;99.90
22923;DHT22;11627;51.322;22.816;2023-04-03T02:17:56;0.70;99.90
22923;DHT22;11627;51.322;22.816;2023-04-03T02:20:22;0.70;99.90
22923;DHT22;11627;51.322;22.816;2023-04-03T02:22:48;0.70;99.90
22923;DHT22;11627;51.322;22.816;2023-04-03T02:25:13;0.70;99.90
22923;DHT22;11627;51.322;22.816;2023-04-03T02:27:39;0.70;99.90
22923;DHT22;11627;51.322;22.816;2023-04-03T02:30:06;0.70;99.90
22923;DHT22;11627;51.322;22.816;2023-04-03T02:32:32;0.70;99.90
22923;DHT22;11627;51.322;22.816;2023-04-03T02:34:57;0.80;99.90
22923;DHT22;11627;51.322;22.816;2023-04-03T02:37:23;0.80;99.90
22923;DHT22;11627;51.322;22.816;2023-04-03T02:39:49;0.80;99.90
22923;DHT22;11627;51.322;22.816;2023-04-03T02:42:15;0.70;99.90
22923;DHT22;11627;51.322;22.816;2023-04-03T02:44:41;0.70;99.90
22923;DHT22;11627;51.322;22.816;2023-04-03T02:47:07;0.70;99.90
22923;DHT22;11627;51.322;22.816;2023-04-03T02:49:33;0.70;99.90
22923;DHT22;11627;51.322;22.816;2023-04-03T02:51:58;0.70;99.90
22923;DHT22;11627;51.322;22.816;2023-04-03T02:54:24;0.60;99.90
22923;DHT22;11627;51.322;22.816;2023-04-03T02:56:54;0.60;99.90
22923;DHT22;11627;51.322;22.816;2023-04-03T02:59:19;0.50;99.90
22923;DHT22;11627;51.322;22.816;2023-04-03T03:01:46;0.40;99.90
22923;DHT22;11627;51.322;22.816;2023-04-03T03:04:11;0.40;99.90
22923;DHT22;11627;51.322;22.816;2023-04-03T03:06:37;0.40;99.90
22923;DHT22;11627;51.322;22.816;2023-04-03T03:09:03;0.40;99.90
22923;DHT22;11627;51.322;22.816;2023-04-03T03:11:30;0.40;99.90
22923;DHT22;11627;51.322;22.816;2023-04-03T03:13:55;0.30;99.90
22923;DHT22;11627;51.322;22.816;2023-04-03T03:16:22;0.30;99.90
22923;DHT22;11627;51.322;22.816;2023-04-03T03:18:47;0.30;99.90
22923;DHT22;11627;51.322;22.816;2023-04-03T03:21:13;0.30;99.90
22923;DHT22;11627;51.322;22.816;2023-04-03T03:23:39;0.30;99.90
22923;DHT22;11627;51.322;22.816;2023-04-03T03:26:07;0.20;99.90
22923;DHT22;11627;51.322;22.816;2023-04-03T03:28:35;0.20;99.90
22923;DHT22;11627;51.322;22.816;2023-04-03T03:31:01;0.10;99.90
22923;DHT22;11627;51.322;22.816;2023-04-03T03:33:27;0.10;99.90
22923;DHT22;11627;51.322;22.816;2023-04-03T03:35:54;0.20;99.90
22923;DHT22;11627;51.322;22.816;2023-04-03T03:38:20;0.20;99.90
22923;DHT22;11627;51.322;22.816;2023-04-03T03:40:49;0.10;99.90
22923;DHT22;11627;51.322;22.816;2023-04-03T03:43:16;0.00;99.90
22923;DHT22;11627;51.322;22.816;2023-04-03T03:45:42;0.00;99.90
22923;DHT22;11627;51.322;22.816;2023-04-03T03:48:07;0.00;99.90
22923;DHT22;11627;51.322;22.816;2023-04-03T03:50:33;0.00;99.90
22923;DHT22;11627;51.322;22.816;2023-04-03T03:52:59;0.00;99.90
22923;DHT22;11627;51.322;22.816;2023-04-03T03:55:25;0.00;99.90
22923;DHT22;11627;51.322;22.816;2023-04-03T03:57:51;0.00;99.90
22923;DHT22;11627;51.322;22.816;2023-04-03T04:00:17;-0.10;99.90
22923;DHT22;11627;51.322;22.816;2023-04-03T04:02:43;0.00;99.90
22923;DHT22;11627;51.322;22.816;2023-04-03T04:05:09;0.00;99.90
22923;DHT22;11627;51.322;22.816;2023-04-03T04:07:35;-0.10;99.90
22923;DHT22;11627;51.322;22.816;2023-04-03T04:10:01;-0.10;99.90
22923;DHT22;11627;51.322;22.816;2023-04-03T04:12:27;-0.10;99.90
22923;DHT22;11627;51.322;22.816;2023-04-03T04:14:52;0.00;99.90
22923;DHT22;11627;51.322;22.816;2023-04-03T04:17:19;-0.10;99.90
22923;DHT22;11627;51.322;22.816;2023-04-03T04:19:45;-0.20;99.90
22923;DHT22;11627;51.322;22.816;2023-04-03T04:22:10;-0.20;99.90
22923;DHT22;11627;51.322;22.816;2023-04-03T04:24:37;-0.30;99.90
22923;DHT22;11627;51.322;22.816;2023-04-03T04:27:02;-0.30;99.90
22923;DHT22;11627;51.322;22.816;2023-04-03T04:29:28;-0.10;99.90
22923;DHT22;11627;51.322;22.816;2023-04-03T04:31:54;-0.20;99.90
22923;DHT22;11627;51.322;22.816;2023-04-03T04:34:20;-0.30;99.90
22923;DHT22;11627;51.322;22.816;2023-04-03T04:36:45;-0.30;99.90
22923;DHT22;11627;51.322;22.816;2023-04-03T04:39:11;-0.20;99.90
22923;DHT22;11627;51.322;22.816;2023-04-03T04:41:37;-0.30;99.90
22923;DHT22;11627;51.322;22.816;2023-04-03T04:44:02;-0.30;99.90
22923;DHT22;11627;51.322;22.816;2023-04-03T04:46:28;-0.30;99.90
22923;DHT22;11627;51.322;22.816;2023-04-03T04:48:54;-0.30;99.90
22923;DHT22;11627;51.322;22.816;2023-04-03T04:51:20;-0.20;99.90
22923;DHT22;11627;51.322;22.816;2023-04-03T04:53:45;-0.20;99.90
22923;DHT22;11627;51.322;22.816;2023-04-03T04:56:11;-0.10;99.90
22923;DHT22;11627;51.322;22.816;2023-04-03T04:58:37;-0.10;99.90
22923;DHT22;11627;51.322;22.816;2023-04-03T05:01:05;-0.10;99.90
22923;DHT22;11627;51.322;22.816;2023-04-03T05:03:32;-0.10;99.90
22923;DHT22;11627;51.322;22.816;2023-04-03T05:05:57;-0.20;99.90
22923;DHT22;11627;51.322;22.816;2023-04-03T05:08:24;-0.10;99.90
22923;DHT22;11627;51.322;22.816;2023-04-03T05:10:50;-0.10;99.90
22923;DHT22;11627;51.322;22.816;2023-04-03T05:13:16;-0.10;99.90
22923;DHT22;11627;51.322;22.816;2023-04-03T05:15:42;-0.10;99.90
22923;DHT22;11627;51.322;22.816;2023-04-03T05:18:07;-0.10;99.90
22923;DHT22;11627;51.322;22.816;2023-04-03T05:20:34;-0.10;99.90
22923;DHT22;11627;51.322;22.816;2023-04-03T05:23:00;-0.10;99.90
22923;DHT22;11627;51.322;22.816;2023-04-03T05:25:26;-0.10;99.90
22923;DHT22;11627;51.322;22.816;2023-04-03T05:27:52;-0.10;99.90
22923;DHT22;11627;51.322;22.816;2023-04-03T05:30:18;-0.10;99.90
22923;DHT22;11627;51.322;22.816;2023-04-03T05:32:44;0.00;99.90
22923;DHT22;11627;51.322;22.816;2023-04-03T05:35:10;0.00;99.90
22923;DHT22;11627;51.322;22.816;2023-04-03T05:37:36;0.00;99.90
22923;DHT22;11627;51.322;22.816;2023-04-03T05:40:03;0.00;99.90
22923;DHT22;11627;51.322;22.816;2023-04-03T05:42:29;-0.10;99.90
22923;DHT22;11627;51.322;22.816;2023-04-03T05:44:55;0.00;99.90
22923;DHT22;11627;51.322;22.816;2023-04-03T05:47:21;-0.10;99.90
22923;DHT22;11627;51.322;22.816;2023-04-03T05:49:47;-0.10;99.90
22923;DHT22;11627;51.322;22.816;2023-04-03T05:52:28;-0.10;99.90
22923;DHT22;11627;51.322;22.816;2023-04-03T05:54:55;-0.10;99.90
22923;DHT22;11627;51.322;22.816;2023-04-03T05:57:21;-0.20;99.90
22923;DHT22;11627;51.322;22.816;2023-04-03T05:59:47;-0.10;99.90
22923;DHT22;11627;51.322;22.816;2023-04-03T06:02:16;-0.10;99.90
22923;DHT22;11627;51.322;22.816;2023-04-03T06:04:42;0.00;99.90
22923;DHT22;11627;51.322;22.816;2023-04-03T06:07:12;0.00;99.90
22923;DHT22;11627;51.322;22.816;2023-04-03T06:09:38;-0.10;99.90
22923;DHT22;11627;51.322;22.816;2023-04-03T06:12:04;-0.10;95.40
22923;DHT22;11627;51.322;22.816;2023-04-03T06:14:30;-0.10;95.50
22923;DHT22;11627;51.322;22.816;2023-04-03T06:16:56;-0.10;92.60
22923;DHT22;11627;51.322;22.816;2023-04-03T06:19:22;0.00;66.60
22923;DHT22;11627;51.322;22.816;2023-04-03T06:21:48;-0.10;38.90
22923;DHT22;11627;51.322;22.816;2023-04-03T06:24:15;-0.10;51.30
22923;DHT22;11627;51.322;22.816;2023-04-03T06:26:41;-0.10;32.20
22923;DHT22;11627;51.322;22.816;2023-04-03T06:29:07;-0.20;38.70
22923;DHT22;11627;51.322;22.816;2023-04-03T06:31:33;-0.10;29.60
22923;DHT22;11627;51.322;22.816;2023-04-03T06:33:59;-0.10;48.90
22923;DHT22;11627;51.322;22.816;2023-04-03T06:36:25;-0.10;47.90
22923;DHT22;11627;51.322;22.816;2023-04-03T06:38:51;-0.20;42.20
22923;DHT22;11627;51.322;22.816;2023-04-03T06:41:17;-0.20;59.20
22923;DHT22;11627;51.322;22.816;2023-04-03T06:43:43;-0.20;49.10
22923;DHT22;11627;51.322;22.816;2023-04-03T06:46:21;-0.30;47.40
22923;DHT22;11627;51.322;22.816;2023-04-03T06:48:47;-0.20;38.60
22923;DHT22;11627;51.322;22.816;2023-04-03T06:51:25;-0.20;31.70
22923;DHT22;11627;51.322;22.816;2023-04-03T06:53:53;-0.20;34.40
22923;DHT22;11627;51.322;22.816;2023-04-03T06:56:19;-0.20;31.40
22923;DHT22;11627;51.322;22.816;2023-04-03T06:58:46;-0.20;25.70
22923;DHT22;11627;51.322;22.816;2023-04-03T07:01:17;-0.10;36.60
22923;DHT22;11627;51.322;22.816;2023-04-03T07:03:44;-0.10;33.50
22923;DHT22;11627;51.322;22.816;2023-04-03T07:06:12;-0.10;45.40
22923;DHT22;11627;51.322;22.816;2023-04-03T07:08:39;0.00;36.40
22923;DHT22;11627;51.322;22.816;2023-04-03T07:11:05;-0.10;31.90
22923;DHT22;11627;51.322;22.816;2023-04-03T07:13:31;0.00;21.80
22923;DHT22;11627;51.322;22.816;2023-04-03T07:15:58;0.00;1.00
22923;DHT22;11627;51.322;22.816;2023-04-03T07:18:24;0.00;1.00
22923;DHT22;11627;51.322;22.816;2023-04-03T07:20:50;0.10;1.00
22923;DHT22;11627;51.322;22.816;2023-04-03T07:23:16;0.10;1.00
22923;DHT22;11627;51.322;22.816;2023-04-03T07:25:47;0.20;1.00
22923;DHT22;11627;51.322;22.816;2023-04-03T07:28:13;0.40;1.00
22923;DHT22;11627;51.322;22.816;2023-04-03T07:30:50;0.50;1.00
22923;DHT22;11627;51.322;22.816;2023-04-03T07:33:17;0.50;1.00
22923;DHT22;11627;51.322;22.816;2023-04-03T07:35:44;0.50;1.00
22923;DHT22;11627;51.322;22.816;2023-04-03T07:38:10;0.60;1.00
22923;DHT22;11627;51.322;22.816;2023-04-03T07:40:37;0.80;1.00
22923;DHT22;11627;51.322;22.816;2023-04-03T07:43:04;0.70;1.00
22923;DHT22;11627;51.322;22.816;2023-04-03T07:45:31;0.90;1.00
22923;DHT22;11627;51.322;22.816;2023-04-03T07:47:57;0.80;99.90
22923;DHT22;11627;51.322;22.816;2023-04-03T07:50:23;0.90;1.00
22923;DHT22;11627;51.322;22.816;2023-04-03T07:52:49;0.90;1.00
22923;DHT22;11627;51.322;22.816;2023-04-03T07:55:16;1.00;1.00
22923;DHT22;11627;51.322;22.816;2023-04-03T07:57:42;0.90;1.00
22923;DHT22;11627;51.322;22.816;2023-04-03T08:00:08;0.90;64.20
22923;DHT22;11627;51.322;22.816;2023-04-03T08:02:35;0.80;1.00
22923;DHT22;11627;51.322;22.816;2023-04-03T08:05:00;0.90;1.00
22923;DHT22;11627;51.322;22.816;2023-04-03T08:07:26;0.90;99.90
22923;DHT22;11627;51.322;22.816;2023-04-03T08:09:52;0.80;99.90
22923;DHT22;11627;51.322;22.816;2023-04-03T08:12:18;0.90;1.00
22923;DHT22;11627;51.322;22.816;2023-04-03T08:14:44;0.90;1.00
22923;DHT22;11627;51.322;22.816;2023-04-03T08:17:09;0.90;1.00
22923;DHT22;11627;51.322;22.816;2023-04-03T08:19:39;1.00;1.00
22923;DHT22;11627;51.322;22.816;2023-04-03T08:22:06;1.00;99.90
22923;DHT22;11627;51.322;22.816;2023-04-03T08:24:33;1.10;1.00
22923;DHT22;11627;51.322;22.816;2023-04-03T08:26:59;1.00;99.90
22923;DHT22;11627;51.322;22.816;2023-04-03T08:29:25;1.00;99.90
22923;DHT22;11627;51.322;22.816;2023-04-03T08:31:51;1.00;99.90
22923;DHT22;11627;51.322;22.816;2023-04-03T08:34:17;1.10;99.90
22923;DHT22;11627;51.322;22.816;2023-04-03T08:36:43;1.10;99.90
22923;DHT22;11627;51.322;22.816;2023-04-03T08:39:10;1.10;1.00
22923;DHT22;11627;51.322;22.816;2023-04-03T08:41:44;1.10;1.00
22923;DHT22;11627;51.322;22.816;2023-04-03T08:47:20;1.20;99.90
22923;DHT22;11627;51.322;22.816;2023-04-03T08:50:21;1.10;99.90
22923;DHT22;11627;51.322;22.816;2023-04-03T08:52:52;1.10;1.00
22923;DHT22;11627;51.322;22.816;2023-04-03T08:55:37;1.10;99.90
22923;DHT22;11627;51.322;22.816;2023-04-03T08:58:25;1.00;1.00
22923;DHT22;11627;51.322;22.816;2023-04-03T09:01:21;1.20;1.00
22923;DHT22;11627;51.322;22.816;2023-04-03T09:03:48;1.10;1.00
22923;DHT22;11627;51.322;22.816;2023-04-03T09:06:26;1.20;1.00
22923;DHT22;11627;51.322;22.816;2023-04-03T09:17:00;1.40;99.90
22923;DHT22;11627;51.322;22.816;2023-04-03T09:21:59;1.40;1.00
22923;DHT22;11627;51.322;22.816;2023-04-03T09:24:28;1.40;1.00
22923;DHT22;11627;51.322;22.816;2023-04-03T09:26:59;1.50;1.00
22923;DHT22;11627;51.322;22.816;2023-04-03T09:29:28;1.50;1.00
22923;DHT22;11627;51.322;22.816;2023-04-03T09:32:02;1.60;1.00
22923;DHT22;11627;51.322;22.816;2023-04-03T09:34:38;1.60;1.00
22923;DHT22;11627;51.322;22.816;2023-04-03T09:37:06;1.70;1.00
22923;DHT22;11627;51.322;22.816;2023-04-03T09:39:49;1.70;1.00
22923;DHT22;11627;51.322;22.816;2023-04-03T09:42:21;1.80;1.00
22923;DHT22;11627;51.322;22.816;2023-04-03T09:44:56;1.70;1.00
22923;DHT22;11627;51.322;22.816;2023-04-03T09:47:33;1.80;1.00
22923;DHT22;11627;51.322;22.816;2023-04-03T09:52:47;2.00;1.00
22923;DHT22;11627;51.322;22.816;2023-04-03T09:55:24;2.00;1.00
22923;DHT22;11627;51.322;22.816;2023-04-03T09:58:04;2.00;1.00
22923;DHT22;11627;51.322;22.816;2023-04-03T10:00:36;2.10;1.00
22923;DHT22;11627;51.322;22.816;2023-04-03T10:03:03;2.20;1.00
22923;DHT22;11627;51.322;22.816;2023-04-03T10:05:38;2.30;1.00
22923;DHT22;11627;51.322;22.816;2023-04-03T10:08:19;2.40;1.00
22923;DHT22;11627;51.322;22.816;2023-04-03T10:10:48;2.50;1.00
22923;DHT22;11627;51.322;22.816;2023-04-03T10:13:15;2.40;1.00
22923;DHT22;11627;51.322;22.816;2023-04-03T10:15:55;2.40;1.00
22923;DHT22;11627;51.322;22.816;2023-04-03T10:21:32;2.40;1.00
22923;DHT22;11627;51.322;22.816;2023-04-03T10:27:07;2.40;1.00
22923;DHT22;11627;51.322;22.816;2023-04-03T10:35:12;2.60;1.00
22923;DHT22;11627;51.322;22.816;2023-04-03T10:41:16;2.70;1.00
22923;DHT22;11627;51.322;22.816;2023-04-03T10:44:12;2.90;1.00
22923;DHT22;11627;51.322;22.816;2023-04-03T10:47:55;3.10;1.00
22923;DHT22;11627;51.322;22.816;2023-04-03T10:50:01;3.10;1.00
22923;DHT22;11627;51.322;22.816;2023-04-03T10:55:30;3.20;1.00
22923;DHT22;11627;51.322;22.816;2023-04-03T10:57:58;3.20;1.00
22923;DHT22;11627;51.322;22.816;2023-04-03T11:00:45;3.20;5.90
22923;DHT22;11627;51.322;22.816;2023-04-03T11:03:16;3.20;1.00
22923;DHT22;11627;51.322;22.816;2023-04-03T11:05:51;3.20;10.10
22923;DHT22;11627;51.322;22.816;2023-04-03T11:10:49;3.30;1.00
22923;DHT22;11627;51.322;22.816;2023-04-03T11:13:22;3.30;1.00
22923;DHT22;11627;51.322;22.816;2023-04-03T11:15:53;3.40;1.00
22923;DHT22;11627;51.322;22.816;2023-04-03T11:18:49;3.30;1.00
22923;DHT22;11627;51.322;22.816;2023-04-03T11:21:21;3.50;1.00
22923;DHT22;11627;51.322;22.816;2023-04-03T11:23:48;3.50;1.00
22923;DHT22;11627;51.322;22.816;2023-04-03T11:26:23;3.60;1.00
22923;DHT22;11627;51.322;22.816;2023-04-03T11:28:58;3.70;1.00
22923;DHT22;11627;51.322;22.816;2023-04-03T11:36:47;3.60;1.00
22923;DHT22;11627;51.322;22.816;2023-04-03T11:39:29;3.40;1.00
22923;DHT22;11627;51.322;22.816;2023-04-03T11:42:22;3.30;1.00
22923;DHT22;11627;51.322;22.816;2023-04-03T11:44:50;3.20;1.00
22923;DHT22;11627;51.322;22.816;2023-04-03T11:47:48;3.20;1.00
22923;DHT22;11627;51.322;22.816;2023-04-03T12:08:50;3.50;1.00
22923;DHT22;11627;51.322;22.816;2023-04-03T12:11:29;3.60;1.00
22923;DHT22;11627;51.322;22.816;2023-04-03T12:21:15;3.80;1.00
22923;DHT22;11627;51.322;22.816;2023-04-03T12:24:00;3.80;1.00
22923;DHT22;11627;51.322;22.816;2023-04-03T12:27:00;3.90;1.00
22923;DHT22;11627;51.322;22.816;2023-04-03T12:29:37;4.00;1.00
22923;DHT22;11627;51.322;22.816;2023-04-03T12:32:35;4.20;1.00
22923;DHT22;11627;51.322;22.816;2023-04-03T12:35:24;4.30;1.00
22923;DHT22;11627;51.322;22.816;2023-04-03T12:48:52;4.10;1.00
22923;DHT22;11627;51.322;22.816;2023-04-03T12:51:42;4.00;1.00
22923;DHT22;11627;51.322;22.816;2023-04-03T12:56:44;3.90;1.00
22923;DHT22;11627;51.322;22.816;2023-04-03T12:59:22;3.80;1.00
22923;DHT22;11627;51.322;22.816;2023-04-03T13:01:59;3.60;1.00
22923;DHT22;11627;51.322;22.816;2023-04-03T13:04:27;3.60;1.00
22923;DHT22;11627;51.322;22.816;2023-04-03T13:06:53;3.70;1.00
22923;DHT22;11627;51.322;22.816;2023-04-03T13:09:24;3.70;1.00
22923;DHT22;11627;51.322;22.816;2023-04-03T13:12:12;3.80;1.00
22923;DHT22;11627;51.322;22.816;2023-04-03T13:14:39;3.80;1.00
22923;DHT22;11627;51.322;22.816;2023-04-03T13:17:10;3.90;1.00
22923;DHT22;11627;51.322;22.816;2023-04-03T13:19:38;3.90;1.00
22923;DHT22;11627;51.322;22.816;2023-04-03T13:24:42;4.20;1.00
22923;DHT22;11627;51.322;22.816;2023-04-03T13:27:11;4.50;1.00
22923;DHT22;11627;51.322;22.816;2023-04-03T13:29:37;4.40;1.00
22923;DHT22;11627;51.322;22.816;2023-04-03T13:32:05;4.30;1.00
22923;DHT22;11627;51.322;22.816;2023-04-03T13:34:41;4.30;1.00
22923;DHT22;11627;51.322;22.816;2023-04-03T13:37:30;4.20;1.00
22923;DHT22;11627;51.322;22.816;2023-04-03T13:40:16;4.10;1.00
22923;DHT22;11627;51.322;22.816;2023-04-03T13:42:42;4.10;1.00
22923;DHT22;11627;51.322;22.816;2023-04-03T13:47:48;4.00;1.00
22923;DHT22;11627;51.322;22.816;2023-04-03T13:50:20;4.00;1.00
22923;DHT22;11627;51.322;22.816;2023-04-03T13:52:49;4.10;1.00
22923;DHT22;11627;51.322;22.816;2023-04-03T13:55:37;4.00;1.00
22923;DHT22;11627;51.322;22.816;2023-04-03T13:58:17;3.80;1.00
22923;DHT22;11627;51.322;22.816;2023-04-03T14:01:08;3.70;1.00
22923;DHT22;11627;51.322;22.816;2023-04-03T14:03:47;3.80;1.00
22923;DHT22;11627;51.322;22.816;2023-04-03T14:06:15;3.60;1.00
22923;DHT22;11627;51.322;22.816;2023-04-03T14:08:43;3.60;1.00
22923;DHT22;11627;51.322;22.816;2023-04-03T14:11:14;3.60;1.00
22923;DHT22;11627;51.322;22.816;2023-04-03T14:13:41;3.50;1.00
22923;DHT22;11627;51.322;22.816;2023-04-03T14:16:07;3.50;1.00
22923;DHT22;11627;51.322;22.816;2023-04-03T14:18:33;3.60;1.00
22923;DHT22;11627;51.322;22.816;2023-04-03T14:20:59;3.70;1.00
22923;DHT22;11627;51.322;22.816;2023-04-03T14:23:24;3.70;1.00
22923;DHT22;11627;51.322;22.816;2023-04-03T14:25:50;3.70;1.00
22923;DHT22;11627;51.322;22.816;2023-04-03T14:28:18;3.80;1.00
22923;DHT22;11627;51.322;22.816;2023-04-03T14:30:46;3.70;1.00
22923;DHT22;11627;51.322;22.816;2023-04-03T14:33:18;3.80;1.00
22923;DHT22;11627;51.322;22.816;2023-04-03T14:35:45;3.90;1.00
22923;DHT22;11627;51.322;22.816;2023-04-03T14:38:26;3.80;1.00
22923;DHT22;11627;51.322;22.816;2023-04-03T14:40:54;3.70;1.00
22923;DHT22;11627;51.322;22.816;2023-04-03T14:43:22;3.80;1.00
22923;DHT22;11627;51.322;22.816;2023-04-03T14:45:48;3.70;1.00
22923;DHT22;11627;51.322;22.816;2023-04-03T14:48:23;3.70;1.00
22923;DHT22;11627;51.322;22.816;2023-04-03T14:50:51;3.70;1.00
22923;DHT22;11627;51.322;22.816;2023-04-03T14:53:18;3.70;1.00
22923;DHT22;11627;51.322;22.816;2023-04-03T14:55:48;3.70;1.00
22923;DHT22;11627;51.322;22.816;2023-04-03T14:58:20;3.70;1.00
22923;DHT22;11627;51.322;22.816;2023-04-03T15:00:46;3.60;1.00
22923;DHT22;11627;51.322;22.816;2023-04-03T15:03:18;3.60;1.00
22923;DHT22;11627;51.322;22.816;2023-04-03T15:05:45;3.70;1.00
22923;DHT22;11627;51.322;22.816;2023-04-03T15:08:24;3.70;1.00
22923;DHT22;11627;51.322;22.816;2023-04-03T15:10:51;3.60;1.00
22923;DHT22;11627;51.322;22.816;2023-04-03T15:13:19;3.60;99.90
22923;DHT22;11627;51.322;22.816;2023-04-03T15:15:46;3.50;99.90
22923;DHT22;11627;51.322;22.816;2023-04-03T15:18:17;3.50;99.90
22923;DHT22;11627;51.322;22.816;2023-04-03T15:20:43;3.40;99.90
22923;DHT22;11627;51.322;22.816;2023-04-03T15:23:12;3.40;99.90
22923;DHT22;11627;51.322;22.816;2023-04-03T15:25:38;3.50;99.90
22923;DHT22;11627;51.322;22.816;2023-04-03T15:28:05;3.50;99.90
22923;DHT22;11627;51.322;22.816;2023-04-03T15:30:40;3.40;99.90
22923;DHT22;11627;51.322;22.816;2023-04-03T15:33:06;3.40;99.90
22923;DHT22;11627;51.322;22.816;2023-04-03T15:35:32;3.40;99.90
22923;DHT22;11627;51.322;22.816;2023-04-03T15:37:58;3.40;99.90
22923;DHT22;11627;51.322;22.816;2023-04-03T15:40:23;3.30;99.90
22923;DHT22;11627;51.322;22.816;2023-04-03T15:42:49;3.30;99.90
22923;DHT22;11627;51.322;22.816;2023-04-03T15:45:15;3.40;99.90
22923;DHT22;11627;51.322;22.816;2023-04-03T15:47:41;3.40;99.90
22923;DHT22;11627;51.322;22.816;2023-04-03T15:50:07;3.50;99.90
22923;DHT22;11627;51.322;22.816;2023-04-03T15:52:34;3.50;99.90
22923;DHT22;11627;51.322;22.816;2023-04-03T15:54:59;3.60;99.90
22923;DHT22;11627;51.322;22.816;2023-04-03T15:57:25;3.50;99.90
22923;DHT22;11627;51.322;22.816;2023-04-03T15:59:52;3.50;99.90
22923;DHT22;11627;51.322;22.816;2023-04-03T16:02:18;3.50;99.90
22923;DHT22;11627;51.322;22.816;2023-04-03T16:04:44;3.50;99.90
22923;DHT22;11627;51.322;22.816;2023-04-03T16:07:10;3.50;99.90
22923;DHT22;11627;51.322;22.816;2023-04-03T16:09:36;3.40;99.90
22923;DHT22;11627;51.322;22.816;2023-04-03T16:12:02;3.40;99.90
22923;DHT22;11627;51.322;22.816;2023-04-03T16:14:28;3.40;99.90
22923;DHT22;11627;51.322;22.816;2023-04-03T16:16:56;3.40;99.90
22923;DHT22;11627;51.322;22.816;2023-04-03T16:19:23;3.40;99.90
22923;DHT22;11627;51.322;22.816;2023-04-03T16:21:49;3.30;99.90
22923;DHT22;11627;51.322;22.816;2023-04-03T16:24:15;3.30;99.90
22923;DHT22;11627;51.322;22.816;2023-04-03T16:26:41;3.30;99.90
22923;DHT22;11627;51.322;22.816;2023-04-03T16:29:07;3.30;99.90
22923;DHT22;11627;51.322;22.816;2023-04-03T16:31:33;3.30;99.90
22923;DHT22;11627;51.322;22.816;2023-04-03T16:34:00;3.30;99.90
22923;DHT22;11627;51.322;22.816;2023-04-03T16:36:26;3.20;99.90
22923;DHT22;11627;51.322;22.816;2023-04-03T16:38:52;3.20;99.90
22923;DHT22;11627;51.322;22.816;2023-04-03T16:41:17;3.20;99.90
22923;DHT22;11627;51.322;22.816;2023-04-03T16:43:43;3.10;99.90
22923;DHT22;11627;51.322;22.816;2023-04-03T16:46:09;3.10;99.90
22923;DHT22;11627;51.322;22.816;2023-04-03T16:48:35;3.10;99.90
22923;DHT22;11627;51.322;22.816;2023-04-03T16:51:00;3.10;99.90
22923;DHT22;11627;51.322;22.816;2023-04-03T16:53:27;3.10;99.90
22923;DHT22;11627;51.322;22.816;2023-04-03T16:55:53;3.10;99.90
22923;DHT22;11627;51.322;22.816;2023-04-03T16:58:19;3.00;99.90
22923;DHT22;11627;51.322;22.816;2023-04-03T17:00:45;3.00;99.90
22923;DHT22;11627;51.322;22.816;2023-04-03T17:03:12;3.00;99.90
22923;DHT22;11627;51.322;22.816;2023-04-03T17:05:38;3.00;99.90
22923;DHT22;11627;51.322;22.816;2023-04-03T17:08:04;2.90;99.90
22923;DHT22;11627;51.322;22.816;2023-04-03T17:10:29;2.90;99.90
22923;DHT22;11627;51.322;22.816;2023-04-03T17:12:55;2.90;99.90
22923;DHT22;11627;51.322;22.816;2023-04-03T17:15:22;2.90;99.90